createdAt,value
2018-10-12T00:01:07.344Z,17.40
2018-10-12T00:03:36.055Z,17.40
2018-10-12T00:06:04.568Z,17.30
2018-10-12T00:08:33.133Z,17.40
2018-10-12T00:11:01.666Z,17.30
2018-10-12T00:13:30.232Z,17.40
2018-10-12T00:15:58.780Z,17.30
2018-10-12T00:18:27.348Z,17.20
2018-10-12T00:20:55.979Z,17.20
2018-10-12T00:23:24.553Z,17.10
2018-10-12T00:25:53.746Z,17.10
2018-10-12T00:28:22.925Z,17.10
2018-10-12T00:30:52.255Z,17.10
2018-10-12T00:33:21.203Z,17.00
2018-10-12T00:35:49.749Z,17.00
2018-10-12T00:38:18.367Z,16.90
2018-10-12T00:40:47.769Z,16.90
2018-10-12T00:43:17.335Z,16.90
2018-10-12T00:45:46.399Z,16.80
2018-10-12T00:48:14.912Z,16.80
2018-10-12T00:50:43.639Z,16.70
2018-10-12T00:53:12.152Z,16.70
2018-10-12T00:55:40.770Z,16.60
2018-10-12T00:58:09.922Z,16.50
2018-10-12T01:00:38.439Z,16.40
2018-10-12T01:03:07.069Z,16.40
2018-10-12T01:05:35.611Z,16.30
2018-10-12T01:08:04.226Z,16.10
2018-10-12T01:10:32.771Z,16.00
2018-10-12T01:13:01.846Z,15.90
2018-10-12T01:15:31.131Z,15.90
2018-10-12T01:17:59.640Z,15.80
2018-10-12T01:20:28.155Z,15.90
2018-10-12T01:22:56.751Z,15.90
2018-10-12T01:25:25.305Z,15.80
2018-10-12T01:27:54.585Z,15.80
2018-10-12T01:30:23.615Z,15.70
2018-10-12T01:32:57.207Z,15.60
2018-10-12T01:35:25.730Z,15.50
2018-10-12T01:37:54.332Z,15.50
2018-10-12T01:40:22.904Z,15.50
2018-10-12T01:42:51.390Z,15.40
2018-10-12T01:45:20.514Z,15.30
2018-10-12T01:47:49.282Z,15.30
2018-10-12T01:50:17.848Z,15.30
2018-10-12T01:52:46.504Z,15.30
2018-10-12T01:55:15.091Z,15.10
2018-10-12T01:57:43.598Z,15.10
2018-10-12T02:00:12.307Z,15.10
2018-10-12T02:02:41.510Z,15.00
2018-10-12T02:05:10.747Z,15.00
2018-10-12T02:07:40.483Z,14.90
2018-10-12T02:10:09.153Z,14.90
2018-10-12T02:12:37.530Z,14.90
2018-10-12T02:15:06.156Z,14.90
2018-10-12T02:17:34.668Z,14.90
2018-10-12T02:20:03.382Z,15.00
2018-10-12T02:22:32.017Z,15.00
2018-10-12T02:25:00.582Z,15.10
2018-10-12T02:27:29.748Z,15.10
2018-10-12T02:29:58.465Z,15.10
2018-10-12T02:32:27.529Z,15.10
2018-10-12T02:34:56.058Z,15.30
2018-10-12T02:37:24.613Z,15.30
2018-10-12T02:39:53.143Z,15.40
2018-10-12T02:42:21.792Z,15.50
2018-10-12T02:44:50.234Z,15.60
2018-10-12T02:47:18.896Z,15.60
2018-10-12T02:49:47.471Z,15.60
2018-10-12T02:52:16.090Z,15.50
2018-10-12T02:54:44.616Z,15.50
2018-10-12T02:57:13.238Z,15.40
2018-10-12T02:59:41.798Z,15.40
2018-10-12T03:02:10.331Z,15.30
2018-10-12T03:04:38.846Z,15.30
2018-10-12T03:07:07.451Z,15.30
2018-10-12T03:09:37.068Z,15.30
2018-10-12T03:12:05.615Z,15.40
2018-10-12T03:14:34.147Z,15.50
2018-10-12T03:17:03.088Z,15.70
2018-10-12T03:19:31.604Z,15.90
2018-10-12T03:22:00.212Z,16.00
2018-10-12T03:24:28.819Z,16.00
2018-10-12T03:26:57.407Z,16.10
2018-10-12T03:29:26.012Z,16.20
2018-10-12T03:31:54.543Z,16.20
2018-10-12T03:34:23.113Z,16.20
2018-10-12T03:36:52.111Z,16.20
2018-10-12T03:39:20.724Z,16.20
2018-10-12T03:41:49.449Z,16.20
2018-10-12T03:44:20.797Z,16.20
2018-10-12T03:46:49.614Z,16.10
2018-10-12T03:49:18.143Z,16.00
2018-10-12T03:51:46.739Z,16.10
2018-10-12T03:54:15.151Z,16.10
2018-10-12T03:56:44.441Z,16.00
2018-10-12T03:59:12.956Z,16.00
2018-10-12T04:01:41.483Z,16.00
2018-10-12T04:04:09.975Z,16.00
2018-10-12T04:06:38.494Z,16.00
2018-10-12T04:09:08.052Z,16.00
2018-10-12T04:11:37.865Z,16.00
2018-10-12T04:14:06.908Z,16.00
2018-10-12T04:16:35.543Z,16.00
2018-10-12T04:19:04.055Z,16.00
2018-10-12T04:21:33.096Z,16.00
2018-10-12T04:24:01.651Z,16.00
2018-10-12T04:26:30.843Z,16.00
2018-10-12T04:29:00.015Z,15.90
2018-10-12T04:31:28.615Z,15.90
2018-10-12T04:33:57.189Z,15.90
2018-10-12T04:36:25.801Z,15.90
2018-10-12T04:39:05.801Z,15.80
2018-10-12T04:41:34.340Z,15.90
2018-10-12T04:44:03.936Z,15.90
2018-10-12T04:46:37.095Z,15.90
2018-10-12T04:49:07.482Z,15.80
2018-10-12T04:51:41.676Z,15.90
2018-10-12T04:54:11.255Z,15.90
2018-10-12T04:56:39.876Z,15.90
2018-10-12T04:59:09.421Z,15.90
2018-10-12T05:01:37.935Z,15.80
2018-10-12T05:04:06.495Z,15.90
2018-10-12T05:06:35.103Z,15.90
2018-10-12T05:09:05.158Z,15.90
2018-10-12T05:11:33.714Z,15.90
2018-10-12T05:14:02.283Z,15.90
2018-10-12T05:16:31.662Z,15.80
2018-10-12T05:19:00.190Z,15.80
2018-10-12T05:21:28.836Z,15.80
2018-10-12T05:23:57.287Z,15.90
2018-10-12T05:26:25.911Z,15.90
2018-10-12T05:28:54.671Z,15.90
2018-10-12T05:31:23.165Z,15.90
2018-10-12T05:33:51.730Z,15.80
2018-10-12T05:36:20.250Z,15.70
2018-10-12T05:38:48.744Z,15.50
2018-10-12T05:41:17.591Z,15.40
2018-10-12T05:43:46.112Z,15.40
2018-10-12T05:46:14.970Z,15.30
2018-10-12T05:48:54.706Z,15.20
2018-10-12T05:51:23.543Z,15.20
2018-10-12T05:53:52.156Z,15.10
2018-10-12T05:56:23.337Z,15.30
2018-10-12T05:58:52.284Z,15.30
2018-10-12T06:01:20.937Z,15.30
2018-10-12T06:03:50.359Z,15.30
2018-10-12T06:06:18.996Z,15.30
2018-10-12T06:08:47.608Z,15.30
2018-10-12T06:11:16.462Z,15.30
2018-10-12T06:13:45.007Z,15.30
2018-10-12T06:16:13.538Z,15.30
2018-10-12T06:18:42.169Z,15.40
2018-10-12T06:21:10.667Z,15.40
2018-10-12T06:23:39.308Z,15.50
2018-10-12T06:26:08.052Z,15.70
2018-10-12T06:28:37.729Z,15.90
2018-10-12T06:31:07.115Z,16.00
2018-10-12T06:33:35.828Z,16.20
2018-10-12T06:36:04.529Z,16.30
2018-10-12T06:38:33.011Z,16.40
2018-10-12T06:41:01.773Z,16.50
2018-10-12T06:43:30.418Z,16.60
2018-10-12T06:46:05.704Z,16.50
2018-10-12T06:48:35.096Z,16.60
2018-10-12T06:51:03.667Z,16.60
2018-10-12T06:53:32.174Z,16.60
2018-10-12T06:56:01.339Z,16.50
2018-10-12T06:58:30.035Z,16.50
2018-10-12T07:00:58.577Z,16.40
2018-10-12T07:03:27.127Z,16.50
2018-10-12T07:05:55.831Z,16.40
2018-10-12T07:08:24.439Z,16.40
2018-10-12T07:10:53.100Z,16.50
2018-10-12T07:13:22.031Z,16.60
2018-10-12T07:15:50.802Z,16.60
2018-10-12T07:18:19.368Z,16.60
2018-10-12T07:20:47.840Z,16.60
2018-10-12T07:23:19.427Z,16.70
2018-10-12T07:25:50.003Z,16.70
2018-10-12T07:28:18.487Z,16.70
2018-10-12T07:30:47.072Z,16.80
2018-10-12T07:33:15.591Z,16.80
2018-10-12T07:35:44.138Z,16.90
2018-10-12T07:38:13.419Z,16.90
2018-10-12T07:40:42.703Z,17.10
2018-10-12T07:43:11.205Z,17.20
2018-10-12T07:45:40.245Z,17.30
2018-10-12T07:48:08.778Z,17.40
2018-10-12T07:50:37.400Z,17.50
2018-10-12T07:53:06.390Z,17.60
2018-10-12T07:55:34.954Z,17.70
2018-10-12T07:58:03.539Z,17.80
2018-10-12T08:00:32.049Z,17.90
2018-10-12T08:03:01.307Z,18.00
2018-10-12T08:05:29.964Z,18.10
2018-10-12T08:07:59.294Z,18.10
2018-10-12T08:10:28.183Z,18.10
2018-10-12T08:12:56.772Z,18.20
2018-10-12T08:15:25.292Z,18.30
2018-10-12T08:17:54.917Z,18.40
2018-10-12T08:20:23.560Z,18.50
2018-10-12T08:22:52.051Z,18.50
2018-10-12T08:25:20.892Z,18.70
2018-10-12T08:27:49.383Z,18.70
2018-10-12T08:30:18.151Z,18.70
2018-10-12T08:32:46.935Z,18.80
2018-10-12T08:35:15.623Z,18.90
2018-10-12T08:37:44.088Z,18.90
2018-10-12T08:40:12.868Z,19.00
2018-10-12T08:42:41.357Z,19.10
2018-10-12T08:45:10.009Z,19.20
2018-10-12T08:47:38.471Z,19.20
2018-10-12T08:50:07.041Z,19.10
2018-10-12T08:52:36.703Z,19.10
2018-10-12T08:55:06.202Z,19.10
2018-10-12T08:57:34.761Z,19.20
2018-10-12T09:00:03.455Z,19.30
2018-10-12T09:02:33.192Z,19.40
2018-10-12T09:05:01.813Z,19.50
2018-10-12T09:07:30.440Z,19.50
2018-10-12T09:09:59.112Z,19.70
2018-10-12T09:12:28.133Z,19.80
2018-10-12T09:14:56.896Z,19.80
2018-10-12T09:17:25.531Z,19.90
2018-10-12T09:19:54.360Z,19.90
2018-10-12T09:22:23.380Z,20.00
2018-10-12T09:24:52.143Z,20.10
2018-10-12T09:27:20.733Z,20.00
2018-10-12T09:29:50.119Z,20.00
2018-10-12T09:32:18.723Z,19.90
2018-10-12T09:34:47.850Z,19.90
2018-10-12T09:37:16.704Z,20.00
2018-10-12T09:39:46.067Z,20.00
2018-10-12T09:42:14.625Z,20.10
2018-10-12T09:44:43.335Z,20.20
2018-10-12T09:47:12.022Z,20.50
2018-10-12T09:49:40.555Z,20.70
2018-10-12T09:52:12.234Z,21.00
2018-10-12T09:54:40.842Z,21.20
2018-10-12T09:57:15.482Z,21.40
2018-10-12T09:59:50.826Z,21.50
2018-10-12T10:02:23.103Z,21.60
2018-10-12T10:04:51.588Z,21.70
2018-10-12T10:07:20.186Z,21.90
2018-10-12T10:09:48.746Z,22.10
2018-10-12T10:12:17.869Z,22.30
2018-10-12T10:14:47.229Z,22.50
2018-10-12T10:17:15.798Z,22.70
2018-10-12T10:19:44.344Z,23.00
2018-10-12T10:22:13.560Z,23.10
2018-10-12T10:24:42.204Z,23.20
2018-10-12T10:27:10.966Z,23.20
2018-10-12T10:29:40.675Z,23.30
2018-10-12T10:32:09.247Z,23.30
2018-10-12T10:34:37.731Z,23.30
2018-10-12T10:37:06.924Z,23.40
2018-10-12T10:39:35.466Z,23.30
2018-10-12T10:42:04.659Z,23.40
2018-10-12T10:44:33.288Z,23.40
2018-10-12T10:47:01.878Z,23.40
2018-10-12T10:49:30.431Z,23.40
2018-10-12T10:51:59.046Z,23.40
2018-10-12T10:54:27.623Z,23.30
2018-10-12T10:57:02.085Z,23.40
2018-10-12T10:59:30.760Z,23.40
2018-10-12T11:01:59.390Z,23.40
2018-10-12T11:04:29.022Z,23.40
2018-10-12T11:06:57.567Z,23.40
2018-10-12T11:09:26.173Z,23.50
2018-10-12T11:11:55.467Z,23.60
2018-10-12T11:14:24.248Z,23.60
2018-10-12T11:16:52.849Z,23.50
2018-10-12T11:19:21.431Z,23.50
2018-10-12T11:21:50.548Z,23.50
2018-10-12T11:24:20.026Z,23.60
2018-10-12T11:26:48.771Z,23.70
2018-10-12T11:29:17.279Z,23.70
2018-10-12T11:31:45.807Z,23.80
2018-10-12T11:34:14.397Z,23.70
2018-10-12T11:36:42.892Z,23.70
2018-10-12T11:39:13.514Z,23.70
2018-10-12T11:41:42.247Z,23.80
2018-10-12T11:44:10.816Z,23.80
2018-10-12T11:46:40.126Z,23.70
2018-10-12T11:49:09.439Z,23.70
2018-10-12T11:51:43.614Z,23.80
2018-10-12T11:54:12.260Z,23.80
2018-10-12T11:56:41.194Z,23.90
2018-10-12T11:59:10.051Z,23.90
2018-10-12T12:01:38.769Z,23.90
2018-10-12T12:04:07.374Z,24.00
2018-10-12T12:06:35.889Z,24.10
2018-10-12T12:09:05.595Z,24.00
2018-10-12T12:11:34.162Z,24.10
2018-10-12T12:14:02.641Z,24.20
2018-10-12T12:16:31.190Z,24.30
2018-10-12T12:18:59.667Z,24.20
2018-10-12T12:21:29.385Z,24.20
2018-10-12T12:23:57.904Z,24.30
2018-10-12T12:26:26.594Z,24.30
2018-10-12T12:28:55.146Z,24.40
2018-10-12T12:31:23.663Z,24.50
2018-10-12T12:33:52.166Z,24.60
2018-10-12T12:36:20.655Z,24.70
2018-10-12T12:38:49.186Z,24.80
2018-10-12T12:41:18.206Z,24.80
2018-10-12T12:43:46.919Z,24.70
2018-10-12T12:46:16.163Z,24.70
2018-10-12T12:48:45.129Z,24.70
2018-10-12T12:51:13.699Z,24.70
2018-10-12T12:53:43.000Z,24.70
2018-10-12T12:56:12.160Z,24.80
2018-10-12T12:58:41.527Z,24.70
2018-10-12T13:01:10.082Z,24.80
2018-10-12T13:03:38.579Z,24.90
2018-10-12T13:06:07.156Z,24.90
2018-10-12T13:08:36.214Z,24.90
2018-10-12T13:11:04.746Z,24.90
2018-10-12T13:13:33.310Z,24.90
2018-10-12T13:16:01.795Z,24.90
2018-10-12T13:18:30.296Z,24.90
2018-10-12T13:20:58.802Z,24.80
2018-10-12T13:23:27.305Z,24.80
2018-10-12T13:25:56.524Z,24.90
2018-10-12T13:28:25.013Z,25.00
2018-10-12T13:30:54.009Z,24.90
2018-10-12T13:33:23.096Z,24.90
2018-10-12T13:35:52.033Z,25.00
2018-10-12T13:38:20.583Z,24.90
2018-10-12T13:40:49.348Z,24.90
2018-10-12T13:43:17.939Z,24.90
2018-10-12T13:45:46.580Z,25.00
2018-10-12T13:48:15.126Z,25.00
2018-10-12T13:50:43.608Z,24.90
2018-10-12T13:53:12.164Z,25.00
2018-10-12T13:55:40.664Z,25.00
2018-10-12T13:58:09.833Z,25.00
2018-10-12T14:00:38.552Z,25.00
2018-10-12T14:03:07.061Z,25.00
2018-10-12T14:05:35.623Z,25.00
2018-10-12T14:08:04.252Z,25.00
2018-10-12T14:10:33.349Z,24.90
2018-10-12T14:13:01.815Z,24.80
2018-10-12T14:15:30.962Z,24.80
2018-10-12T14:17:59.427Z,24.80
2018-10-12T14:20:27.978Z,24.80
2018-10-12T14:22:56.439Z,24.70
2018-10-12T14:25:24.991Z,24.70
2018-10-12T14:27:53.837Z,24.70
2018-10-12T14:30:22.652Z,24.70
2018-10-12T14:32:51.204Z,24.70
2018-10-12T14:35:19.703Z,24.60
2018-10-12T14:37:48.273Z,24.70
2018-10-12T14:40:16.955Z,24.60
2018-10-12T14:42:45.480Z,24.50
2018-10-12T14:45:13.978Z,24.50
2018-10-12T14:47:42.759Z,24.50
2018-10-12T14:50:11.255Z,24.50
2018-10-12T14:52:39.793Z,24.50
2018-10-12T14:55:08.719Z,24.40
2018-10-12T14:57:37.839Z,24.40
2018-10-12T15:00:08.101Z,24.50
2018-10-12T15:02:36.578Z,24.50
2018-10-12T15:05:05.485Z,24.50
2018-10-12T15:07:34.117Z,24.50
2018-10-12T15:10:02.954Z,24.40
2018-10-12T15:12:31.458Z,24.40
2018-10-12T15:15:22.670Z,24.30
2018-10-12T15:17:52.949Z,24.30
2018-10-12T15:20:22.445Z,24.30
2018-10-12T15:22:51.232Z,24.20
2018-10-12T15:25:19.943Z,24.20
2018-10-12T15:27:48.680Z,24.10
2018-10-12T15:30:17.876Z,24.00
2018-10-12T15:32:47.028Z,24.00
2018-10-12T15:35:15.659Z,24.00
2018-10-12T15:37:45.056Z,24.00
2018-10-12T15:40:13.579Z,24.00
2018-10-12T15:42:42.201Z,24.00
2018-10-12T15:45:11.322Z,23.90
2018-10-12T15:47:40.765Z,23.90
2018-10-12T15:50:09.304Z,23.80
2018-10-12T15:52:37.871Z,23.90
2018-10-12T15:55:06.436Z,23.80
2018-10-12T15:57:35.029Z,23.70
2018-10-12T16:00:03.822Z,23.60
2018-10-12T16:02:32.477Z,23.50
2018-10-12T16:05:01.167Z,23.40
2018-10-12T16:07:29.739Z,23.30
2018-10-12T16:09:58.298Z,23.30
2018-10-12T16:12:27.111Z,23.30
2018-10-12T16:14:55.953Z,23.20
2018-10-12T16:17:24.472Z,23.20
2018-10-12T16:19:53.157Z,23.20
2018-10-12T16:22:21.689Z,23.20
2018-10-12T16:25:01.360Z,23.10
2018-10-12T16:27:29.924Z,23.10
2018-10-12T16:29:58.553Z,23.00
2018-10-12T16:32:27.068Z,22.90
2018-10-12T16:34:55.589Z,22.80
2018-10-12T16:37:24.648Z,22.80
2018-10-12T16:39:53.137Z,22.70
2018-10-12T16:42:22.350Z,22.70
2018-10-12T16:44:50.958Z,22.70
2018-10-12T16:47:19.746Z,22.50
2018-10-12T16:49:48.309Z,22.50
2018-10-12T16:52:16.888Z,22.40
2018-10-12T16:54:45.412Z,22.30
2018-10-12T16:57:14.463Z,22.20
2018-10-12T16:59:43.000Z,22.20
2018-10-12T17:02:11.538Z,22.10
2018-10-12T17:04:40.292Z,22.20
2018-10-12T17:07:08.920Z,22.10
2018-10-12T17:09:37.623Z,22.00
2018-10-12T17:12:06.215Z,22.10
2018-10-12T17:14:34.731Z,22.00
2018-10-12T17:17:03.332Z,22.00
2018-10-12T17:19:31.989Z,22.00
2018-10-12T17:22:01.206Z,22.00
2018-10-12T17:24:29.923Z,21.90
2018-10-12T17:26:58.706Z,21.90
2018-10-12T17:29:27.298Z,21.90
2018-10-12T17:31:56.063Z,21.90
2018-10-12T17:34:24.653Z,22.00
2018-10-12T17:36:53.157Z,21.90
2018-10-12T17:39:21.780Z,22.00
2018-10-12T17:41:50.501Z,22.00
2018-10-12T17:44:18.997Z,22.00
2018-10-12T17:46:47.554Z,22.00
2018-10-12T17:49:16.218Z,22.10
2018-10-12T17:51:44.810Z,22.00
2018-10-12T17:54:13.473Z,22.00
2018-10-12T17:56:42.552Z,22.00
2018-10-12T17:59:11.116Z,22.00
2018-10-12T18:01:39.752Z,21.90
2018-10-12T18:04:08.354Z,22.00
2018-10-12T18:06:36.964Z,21.90
2018-10-12T18:09:07.751Z,21.90
2018-10-12T18:11:36.878Z,21.90
2018-10-12T18:14:06.078Z,21.80
2018-10-12T18:16:34.752Z,21.80
2018-10-12T18:19:03.308Z,21.70
2018-10-12T18:21:31.941Z,21.70
2018-10-12T18:24:00.460Z,21.70
2018-10-12T18:26:29.701Z,21.70
2018-10-12T18:28:58.319Z,21.60
2018-10-12T18:31:26.893Z,21.60
2018-10-12T18:33:55.640Z,21.50
2018-10-12T18:36:25.001Z,21.50
2018-10-12T18:38:53.678Z,21.50
2018-10-12T18:41:22.520Z,21.40
2018-10-12T18:43:51.197Z,21.50
2018-10-12T18:46:19.841Z,21.40
2018-10-12T18:48:49.557Z,21.40
2018-10-12T18:51:18.558Z,21.40
2018-10-12T18:53:47.230Z,21.40
2018-10-12T18:56:15.818Z,21.30
2018-10-12T18:58:44.476Z,21.30
2018-10-12T19:01:13.868Z,21.30
2018-10-12T19:03:42.542Z,21.20
2018-10-12T19:06:11.391Z,21.10
2018-10-12T19:08:40.108Z,21.10
2018-10-12T19:11:09.458Z,21.00
2018-10-12T19:13:38.150Z,21.00
2018-10-12T19:16:06.734Z,21.00
2018-10-12T19:18:35.415Z,20.90
2018-10-12T19:21:03.955Z,20.80
2018-10-12T19:23:37.542Z,20.80
2018-10-12T19:26:08.410Z,20.80
2018-10-12T19:28:38.391Z,20.80
2018-10-12T19:31:07.880Z,20.80
2018-10-12T19:33:37.529Z,20.80
2018-10-12T19:36:07.685Z,20.80
2018-10-12T19:38:36.553Z,20.70
2018-10-12T19:41:06.052Z,20.70
2018-10-12T19:43:34.781Z,20.70
2018-10-12T19:46:03.356Z,20.70
2018-10-12T19:48:32.134Z,20.70
2018-10-12T19:51:00.752Z,20.70
2018-10-12T19:53:29.546Z,20.70
2018-10-12T19:55:58.130Z,20.70
2018-10-12T19:58:27.067Z,20.70
2018-10-12T20:00:55.712Z,20.70
2018-10-12T20:03:24.372Z,20.70
2018-10-12T20:05:52.973Z,20.60
2018-10-12T20:08:21.646Z,20.60
2018-10-12T20:10:50.165Z,20.60
2018-10-12T20:13:18.691Z,20.60
2018-10-12T20:15:47.407Z,20.60
2018-10-12T20:18:16.832Z,20.60
2018-10-12T20:20:45.417Z,20.60
2018-10-12T20:23:14.104Z,20.60
2018-10-12T20:25:42.701Z,20.50
2018-10-12T20:28:11.480Z,20.40
2018-10-12T20:30:40.096Z,20.40
2018-10-12T20:33:08.654Z,20.50
2018-10-12T20:35:37.380Z,20.50
2018-10-12T20:38:05.983Z,20.40
2018-10-12T20:40:34.788Z,20.40
2018-10-12T20:43:03.531Z,20.30
2018-10-12T20:45:32.117Z,20.30
2018-10-12T20:48:00.765Z,20.30
2018-10-12T20:50:29.376Z,20.30
2018-10-12T20:52:57.903Z,20.20
2018-10-12T20:55:26.563Z,20.20
2018-10-12T20:57:55.090Z,20.20
2018-10-12T21:00:23.782Z,20.20
2018-10-12T21:02:52.281Z,20.20
2018-10-12T21:05:20.972Z,20.10
2018-10-12T21:07:49.795Z,20.10
2018-10-12T21:10:18.442Z,20.10
2018-10-12T21:12:47.072Z,20.10
2018-10-12T21:15:17.564Z,20.10
2018-10-12T21:17:46.214Z,20.10
2018-10-12T21:20:15.298Z,20.10
2018-10-12T21:22:43.879Z,20.10
2018-10-12T21:25:12.567Z,20.10
2018-10-12T21:27:41.081Z,20.00
2018-10-12T21:30:09.795Z,20.00
2018-10-12T21:32:38.453Z,19.90
2018-10-12T21:35:07.094Z,20.00
2018-10-12T21:37:36.196Z,20.00
2018-10-12T21:40:04.929Z,19.90
2018-10-12T21:42:34.040Z,19.90
2018-10-12T21:45:02.657Z,19.90
2018-10-12T21:47:31.182Z,19.90
2018-10-12T21:49:59.815Z,19.90
2018-10-12T21:52:28.365Z,19.90
2018-10-12T21:54:56.895Z,19.90
2018-10-12T21:57:25.597Z,19.80
2018-10-12T21:59:54.179Z,19.90
2018-10-12T22:02:22.680Z,19.90
2018-10-12T22:04:51.289Z,19.80
2018-10-12T22:07:19.987Z,19.70
2018-10-12T22:09:48.541Z,19.70
2018-10-12T22:12:17.117Z,19.70
2018-10-12T22:14:45.833Z,19.70
2018-10-12T22:17:14.301Z,19.70
2018-10-12T22:19:49.783Z,19.70
2018-10-12T22:22:18.483Z,19.60
2018-10-12T22:24:47.067Z,19.60
2018-10-12T22:27:15.793Z,19.70
2018-10-12T22:29:44.309Z,19.70
2018-10-12T22:32:12.970Z,19.80
2018-10-12T22:34:42.457Z,19.80
2018-10-12T22:37:11.052Z,19.80
2018-10-12T22:39:42.537Z,19.80
2018-10-12T22:42:12.857Z,19.80
2018-10-12T22:44:41.467Z,19.80
2018-10-12T22:47:10.568Z,19.80
2018-10-12T22:49:39.657Z,19.80
2018-10-12T22:52:08.473Z,19.80
2018-10-12T22:54:37.114Z,19.70
2018-10-12T22:57:05.695Z,19.70
2018-10-12T22:59:34.292Z,19.60
2018-10-12T23:02:02.906Z,19.60
2018-10-12T23:04:31.516Z,19.50
2018-10-12T23:07:00.168Z,19.50
2018-10-12T23:09:28.628Z,19.50
2018-10-12T23:11:58.069Z,19.40
2018-10-12T23:14:26.557Z,19.30
2018-10-12T23:16:55.112Z,19.30
2018-10-12T23:19:23.640Z,19.20
2018-10-12T23:21:52.847Z,19.20
2018-10-12T23:24:21.595Z,19.10
2018-10-12T23:26:50.135Z,19.10
2018-10-12T23:29:18.816Z,19.00
2018-10-12T23:31:47.725Z,18.90
2018-10-12T23:34:16.305Z,18.80
2018-10-12T23:36:44.940Z,18.70
2018-10-12T23:39:13.526Z,18.60
2018-10-12T23:41:42.855Z,18.40
2018-10-12T23:44:12.554Z,18.40
2018-10-12T23:46:41.187Z,18.20
2018-10-12T23:49:09.651Z,18.20
2018-10-12T23:51:38.872Z,18.10
2018-10-12T23:54:07.552Z,18.00
2018-10-12T23:56:36.190Z,18.00
2018-10-12T23:59:05.434Z,17.90
